createdAt,value
2023-11-07T00:00:34.459Z,100.00
2023-11-07T00:03:02.915Z,100.00
2023-11-07T00:05:31.288Z,100.00
2023-11-07T00:08:00.059Z,100.00
2023-11-07T00:10:29.940Z,100.00
2023-11-07T00:13:00.075Z,100.00
2023-11-07T00:15:30.222Z,100.00
2023-11-07T00:18:00.338Z,100.00
2023-11-07T00:20:30.218Z,100.00
2023-11-07T00:23:00.288Z,100.00
2023-11-07T00:25:30.026Z,100.00
2023-11-07T00:28:00.553Z,100.00
2023-11-07T00:30:30.708Z,100.00
2023-11-07T00:33:00.715Z,100.00
2023-11-07T00:35:30.815Z,100.00
2023-11-07T00:38:00.831Z,100.00
2023-11-07T00:40:30.851Z,100.00
2023-11-07T00:43:00.854Z,100.00
2023-11-07T00:45:31.123Z,100.00
2023-11-07T00:47:59.578Z,100.00
2023-11-07T00:50:27.898Z,100.00
2023-11-07T00:52:56.283Z,100.00
2023-11-07T00:55:24.675Z,100.00
2023-11-07T00:57:53.157Z,100.00
2023-11-07T01:00:22.581Z,100.00
2023-11-07T01:02:50.124Z,100.00
2023-11-07T01:05:19.985Z,100.00
2023-11-07T01:07:49.935Z,100.00
2023-11-07T01:10:19.252Z,100.00
2023-11-07T01:12:47.430Z,100.00
2023-11-07T01:15:15.255Z,100.00
2023-11-07T01:17:43.604Z,100.00
2023-11-07T01:20:15.932Z,100.00
2023-11-07T01:22:46.136Z,100.00
2023-11-07T01:25:16.112Z,100.00
2023-11-07T01:27:46.056Z,100.00
2023-11-07T01:30:16.142Z,100.00
2023-11-07T01:32:46.072Z,100.00
2023-11-07T01:35:17.076Z,100.00
2023-11-07T01:37:46.105Z,100.00
2023-11-07T01:40:16.269Z,100.00
2023-11-07T01:42:49.844Z,100.00
2023-11-07T01:45:18.901Z,100.00
2023-11-07T01:47:50.447Z,100.00
2023-11-07T01:50:19.516Z,100.00
2023-11-07T01:52:49.433Z,100.00
2023-11-07T01:55:19.512Z,100.00
2023-11-07T01:57:49.522Z,100.00
2023-11-07T02:00:21.035Z,100.00
2023-11-07T02:02:50.909Z,100.00
2023-11-07T02:05:20.799Z,100.00
2023-11-07T02:07:50.805Z,100.00
2023-11-07T02:10:21.512Z,100.00
2023-11-07T02:12:51.851Z,100.00
2023-11-07T02:15:36.405Z,100.00
2023-11-07T02:18:07.843Z,100.00
2023-11-07T02:20:39.782Z,100.00
2023-11-07T02:23:35.858Z,100.00
2023-11-07T02:26:06.420Z,100.00
2023-11-07T02:28:36.691Z,100.00
2023-11-07T02:31:07.281Z,100.00
2023-11-07T02:33:38.899Z,100.00
2023-11-07T02:36:10.422Z,100.00
2023-11-07T02:38:40.616Z,100.00
2023-11-07T02:41:10.948Z,100.00
2023-11-07T02:43:39.183Z,100.00
2023-11-07T02:46:07.685Z,100.00
2023-11-07T02:48:36.273Z,100.00
2023-11-07T02:51:04.600Z,100.00
2023-11-07T02:53:33.293Z,100.00
2023-11-07T02:56:02.660Z,100.00
2023-11-07T02:58:32.674Z,100.00
2023-11-07T03:01:01.359Z,100.00
2023-11-07T03:03:30.231Z,100.00
2023-11-07T03:05:58.361Z,100.00
2023-11-07T03:08:29.020Z,100.00
2023-11-07T03:10:59.187Z,100.00
2023-11-07T03:13:29.330Z,100.00
2023-11-07T03:15:59.465Z,100.00
2023-11-07T03:18:29.720Z,100.00
2023-11-07T03:21:00.026Z,100.00
2023-11-07T03:23:30.213Z,100.00
2023-11-07T03:26:00.451Z,100.00
2023-11-07T03:28:30.569Z,100.00
2023-11-07T03:31:00.773Z,100.00
2023-11-07T03:33:31.241Z,100.00
2023-11-07T03:36:02.226Z,100.00
2023-11-07T03:38:32.455Z,100.00
2023-11-07T03:41:06.047Z,100.00
2023-11-07T03:43:36.981Z,100.00
2023-11-07T03:46:07.537Z,100.00
2023-11-07T03:48:37.800Z,100.00
2023-11-07T03:51:08.123Z,100.00
2023-11-07T03:53:38.120Z,100.00
2023-11-07T03:56:11.023Z,100.00
2023-11-07T03:58:38.922Z,100.00
2023-11-07T04:01:09.086Z,100.00
2023-11-07T04:03:39.339Z,100.00
2023-11-07T04:06:10.062Z,100.00
2023-11-07T04:08:39.920Z,100.00
2023-11-07T04:11:09.170Z,100.00
2023-11-07T04:13:39.368Z,100.00
2023-11-07T04:16:10.052Z,100.00
2023-11-07T04:18:41.113Z,100.00
2023-11-07T04:21:11.475Z,100.00
2023-11-07T04:23:43.776Z,100.00
2023-11-07T04:26:11.061Z,100.00
2023-11-07T04:28:41.195Z,100.00
2023-11-07T04:31:11.394Z,100.00
2023-11-07T04:33:43.198Z,100.00
2023-11-07T04:36:13.590Z,100.00
2023-11-07T04:38:44.234Z,100.00
2023-11-07T04:41:15.298Z,100.00
2023-11-07T04:43:45.495Z,100.00
2023-11-07T04:46:14.906Z,100.00
2023-11-07T04:48:45.192Z,100.00
2023-11-07T04:51:18.707Z,100.00
2023-11-07T04:53:47.596Z,100.00
2023-11-07T04:56:16.410Z,100.00
2023-11-07T04:58:56.806Z,100.00
2023-11-07T05:01:28.993Z,100.00
2023-11-07T05:03:59.569Z,100.00
2023-11-07T05:06:29.941Z,100.00
2023-11-07T05:09:00.350Z,100.00
2023-11-07T05:11:30.498Z,100.00
2023-11-07T05:14:02.125Z,100.00
2023-11-07T05:16:32.698Z,100.00
2023-11-07T05:19:03.695Z,100.00
2023-11-07T05:21:33.969Z,100.00
2023-11-07T05:24:05.990Z,100.00
2023-11-07T05:26:36.928Z,100.00
2023-11-07T05:29:07.353Z,100.00
2023-11-07T05:31:37.536Z,100.00
2023-11-07T05:34:07.857Z,100.00
2023-11-07T05:36:38.333Z,100.00
2023-11-07T05:39:08.663Z,100.00
2023-11-07T05:41:39.012Z,100.00
2023-11-07T05:44:08.298Z,100.00
2023-11-07T05:46:35.947Z,100.00
2023-11-07T05:49:04.395Z,100.00
2023-11-07T05:51:32.525Z,100.00
2023-11-07T05:54:00.951Z,100.00
2023-11-07T05:56:29.327Z,100.00
2023-11-07T05:58:57.749Z,100.00
2023-11-07T06:01:26.142Z,100.00
2023-11-07T06:03:55.789Z,100.00
2023-11-07T06:06:26.564Z,100.00
2023-11-07T06:08:55.100Z,100.00
2023-11-07T06:11:22.876Z,100.00
2023-11-07T06:13:51.257Z,100.00
2023-11-07T06:16:20.159Z,100.00
2023-11-07T06:18:48.335Z,100.00
2023-11-07T06:21:17.197Z,100.00
2023-11-07T06:23:44.959Z,100.00
2023-11-07T06:26:13.345Z,100.00
2023-11-07T06:28:41.773Z,100.00
2023-11-07T06:31:10.217Z,100.00
2023-11-07T06:33:38.752Z,100.00
2023-11-07T06:36:08.001Z,100.00
2023-11-07T06:38:35.379Z,100.00
2023-11-07T06:41:03.918Z,100.00
2023-11-07T06:43:33.250Z,100.00
2023-11-07T06:46:01.509Z,100.00
2023-11-07T06:48:30.250Z,100.00
2023-11-07T06:51:03.406Z,100.00
2023-11-07T06:53:33.686Z,100.00
2023-11-07T06:56:05.688Z,100.00
2023-11-07T06:58:36.866Z,100.00
2023-11-07T07:01:07.187Z,100.00
2023-11-07T07:03:37.633Z,100.00
2023-11-07T07:06:08.404Z,100.00
2023-11-07T07:08:38.752Z,100.00
2023-11-07T07:11:09.003Z,100.00
2023-11-07T07:13:39.315Z,100.00
2023-11-07T07:16:10.291Z,100.00
2023-11-07T07:18:40.866Z,100.00
2023-11-07T07:21:11.154Z,100.00
2023-11-07T07:23:43.649Z,100.00
2023-11-07T07:26:19.965Z,100.00
2023-11-07T07:28:53.822Z,100.00
2023-11-07T07:31:28.736Z,100.00
2023-11-07T07:33:59.258Z,100.00
2023-11-07T07:36:29.434Z,100.00
2023-11-07T07:38:59.592Z,100.00
2023-11-07T07:41:29.774Z,100.00
2023-11-07T07:44:02.546Z,100.00
2023-11-07T07:46:36.073Z,100.00
2023-11-07T07:49:12.471Z,100.00
2023-11-07T07:51:46.613Z,100.00
2023-11-07T07:54:35.022Z,100.00
2023-11-07T07:57:07.377Z,100.00
2023-11-07T07:59:43.092Z,100.00
2023-11-07T08:02:13.869Z,100.00
2023-11-07T08:04:44.052Z,100.00
2023-11-07T08:07:18.129Z,100.00
2023-11-07T08:09:48.449Z,100.00
2023-11-07T08:12:18.701Z,100.00
2023-11-07T08:14:49.491Z,100.00
2023-11-07T08:17:19.697Z,100.00
2023-11-07T08:19:50.681Z,100.00
2023-11-07T08:22:20.884Z,100.00
2023-11-07T08:24:49.252Z,100.00
2023-11-07T08:27:18.139Z,100.00
2023-11-07T08:29:46.070Z,100.00
2023-11-07T08:32:14.490Z,100.00
2023-11-07T08:34:43.245Z,100.00
2023-11-07T08:37:12.385Z,100.00
2023-11-07T08:39:42.213Z,100.00
2023-11-07T08:42:12.205Z,100.00
2023-11-07T08:44:40.104Z,100.00
2023-11-07T08:47:08.029Z,100.00
2023-11-07T08:49:36.465Z,100.00
2023-11-07T08:52:06.132Z,100.00
2023-11-07T08:54:38.315Z,100.00
2023-11-07T08:57:08.711Z,100.00
2023-11-07T08:59:46.090Z,100.00
2023-11-07T09:02:16.887Z,100.00
2023-11-07T09:04:49.275Z,100.00
2023-11-07T09:07:20.509Z,100.00
2023-11-07T09:09:50.709Z,100.00
2023-11-07T09:12:20.981Z,100.00
2023-11-07T09:14:49.465Z,100.00
2023-11-07T09:17:17.882Z,100.00
2023-11-07T09:19:46.337Z,100.00
2023-11-07T09:22:14.919Z,100.00
2023-11-07T09:24:42.976Z,100.00
2023-11-07T09:27:11.741Z,100.00
2023-11-07T09:29:40.517Z,100.00
2023-11-07T09:32:08.944Z,100.00
2023-11-07T09:34:42.657Z,100.00
2023-11-07T09:37:13.024Z,100.00
2023-11-07T09:39:43.168Z,100.00
2023-11-07T09:42:14.056Z,100.00
2023-11-07T09:44:44.500Z,100.00
2023-11-07T09:47:15.411Z,100.00
2023-11-07T09:49:46.546Z,100.00
2023-11-07T09:52:17.335Z,100.00
2023-11-07T09:54:50.564Z,100.00
2023-11-07T09:57:23.516Z,100.00
2023-11-07T10:00:00.476Z,100.00
2023-11-07T10:02:32.165Z,100.00
2023-11-07T10:05:06.761Z,100.00
2023-11-07T10:07:37.380Z,99.50
2023-11-07T10:10:11.841Z,100.00
2023-11-07T10:12:46.232Z,98.55
2023-11-07T10:15:21.293Z,96.76
2023-11-07T10:18:06.264Z,98.20
2023-11-07T10:20:56.455Z,97.31
2023-11-07T10:23:27.355Z,95.67
2023-11-07T10:26:14.624Z,96.82
2023-11-07T10:28:44.825Z,96.00
2023-11-07T10:31:21.939Z,95.31
2023-11-07T10:33:52.170Z,96.83
2023-11-07T10:36:24.087Z,96.18
2023-11-07T10:38:54.365Z,98.29
2023-11-07T10:41:29.674Z,96.81
2023-11-07T10:44:15.953Z,97.09
2023-11-07T10:46:50.894Z,97.00
2023-11-07T10:49:23.112Z,97.05
2023-11-07T10:51:56.899Z,97.64
2023-11-07T10:54:32.087Z,97.83
2023-11-07T10:57:12.032Z,97.13
2023-11-07T10:59:50.720Z,96.48
2023-11-07T11:02:27.299Z,95.45
2023-11-07T11:05:05.033Z,93.48
2023-11-07T11:07:36.419Z,94.82
2023-11-07T11:10:11.956Z,93.25
2023-11-07T11:12:44.375Z,96.30
2023-11-07T11:15:15.504Z,93.71
2023-11-07T11:18:09.424Z,94.88
2023-11-07T11:21:18.247Z,98.69
2023-11-07T11:24:30.191Z,92.59
2023-11-07T11:27:17.864Z,92.03
2023-11-07T11:29:48.228Z,96.50
2023-11-07T11:32:33.283Z,95.17
2023-11-07T11:35:18.048Z,93.03
2023-11-07T11:38:22.800Z,94.45
2023-11-07T11:41:02.028Z,94.55
2023-11-07T11:43:35.776Z,95.68
2023-11-07T11:46:14.587Z,96.03
2023-11-07T11:49:17.767Z,95.04
2023-11-07T11:51:49.720Z,92.68
2023-11-07T11:54:28.584Z,94.02
2023-11-07T11:57:00.406Z,98.07
2023-11-07T11:59:58.289Z,95.98
2023-11-07T12:02:46.582Z,95.95
2023-11-07T12:05:19.443Z,96.00
2023-11-07T12:07:50.225Z,95.96
2023-11-07T12:10:22.970Z,95.75
2023-11-07T12:13:02.042Z,96.14
2023-11-07T12:15:33.856Z,95.77
2023-11-07T12:18:03.293Z,93.23
2023-11-07T12:20:45.329Z,94.10
2023-11-07T12:23:16.879Z,94.19
2023-11-07T12:25:53.893Z,94.10
2023-11-07T12:28:22.166Z,96.78
2023-11-07T12:30:57.647Z,96.58
2023-11-07T12:33:30.634Z,96.41
2023-11-07T12:36:03.664Z,93.97
2023-11-07T12:38:36.199Z,92.77
2023-11-07T12:41:07.382Z,91.74
2023-11-07T12:43:44.965Z,89.33
2023-11-07T12:46:18.102Z,89.72
2023-11-07T12:48:53.475Z,92.40
2023-11-07T12:51:23.323Z,93.27
2023-11-07T12:53:54.779Z,91.40
2023-11-07T12:56:26.473Z,91.57
2023-11-07T12:59:14.091Z,89.89
2023-11-07T13:01:51.096Z,87.89
2023-11-07T13:04:21.277Z,88.97
2023-11-07T13:07:02.490Z,88.52
2023-11-07T13:09:37.078Z,89.14
2023-11-07T13:12:19.893Z,89.92
2023-11-07T13:14:50.662Z,91.79
2023-11-07T13:17:20.917Z,90.23
2023-11-07T13:19:52.046Z,91.88
2023-11-07T13:22:22.345Z,93.76
2023-11-07T13:24:52.295Z,94.42
2023-11-07T13:27:22.418Z,92.81
2023-11-07T13:29:52.642Z,93.73
2023-11-07T13:32:22.584Z,95.12
2023-11-07T13:34:52.507Z,95.43
2023-11-07T13:37:22.672Z,96.07
2023-11-07T13:39:52.674Z,95.58
2023-11-07T13:42:22.569Z,95.47
2023-11-07T13:44:55.652Z,93.46
2023-11-07T13:47:25.325Z,93.04
2023-11-07T13:49:54.499Z,92.77
2023-11-07T13:52:25.432Z,93.76
2023-11-07T13:54:55.513Z,96.01
2023-11-07T13:57:25.641Z,95.12
2023-11-07T13:59:55.998Z,94.41
2023-11-07T14:02:27.033Z,96.98
2023-11-07T14:04:57.171Z,98.46
2023-11-07T14:07:27.091Z,99.16
2023-11-07T14:09:56.840Z,100.00
2023-11-07T14:12:27.017Z,100.00
2023-11-07T14:14:56.953Z,100.00
2023-11-07T14:17:26.873Z,100.00
2023-11-07T14:20:01.000Z,100.00
2023-11-07T14:22:28.560Z,100.00
2023-11-07T14:25:00.981Z,100.00
2023-11-07T14:27:33.250Z,100.00
2023-11-07T14:30:15.730Z,100.00
2023-11-07T14:32:55.756Z,100.00
2023-11-07T14:35:26.007Z,100.00
2023-11-07T14:37:56.810Z,100.00
2023-11-07T14:40:27.847Z,100.00
2023-11-07T14:42:59.103Z,100.00
2023-11-07T14:45:29.873Z,100.00
2023-11-07T14:48:01.259Z,99.14
2023-11-07T14:50:31.609Z,100.00
2023-11-07T14:53:03.375Z,100.00
2023-11-07T14:55:37.143Z,100.00
2023-11-07T14:58:08.403Z,100.00
2023-11-07T15:00:42.518Z,100.00
2023-11-07T15:03:13.486Z,100.00
2023-11-07T15:05:46.031Z,100.00
2023-11-07T15:08:16.247Z,100.00
2023-11-07T15:10:44.271Z,100.00
2023-11-07T15:13:14.412Z,100.00
2023-11-07T15:15:45.200Z,100.00
2023-11-07T15:18:15.562Z,100.00
2023-11-07T15:20:46.089Z,100.00
2023-11-07T15:23:16.264Z,100.00
2023-11-07T15:25:46.511Z,100.00
2023-11-07T15:28:16.804Z,100.00
2023-11-07T15:30:47.054Z,100.00
2023-11-07T15:33:17.335Z,100.00
2023-11-07T15:35:47.597Z,100.00
2023-11-07T15:38:18.249Z,100.00
2023-11-07T15:40:48.420Z,100.00
2023-11-07T15:43:18.573Z,100.00
2023-11-07T15:45:48.682Z,100.00
2023-11-07T15:48:18.853Z,100.00
2023-11-07T15:50:51.189Z,100.00
2023-11-07T15:53:21.330Z,100.00
2023-11-07T15:55:51.397Z,100.00
2023-11-07T15:58:21.404Z,100.00
2023-11-07T16:00:51.438Z,100.00
2023-11-07T16:03:21.584Z,100.00
2023-11-07T16:05:50.772Z,100.00
2023-11-07T16:08:20.572Z,100.00
2023-11-07T16:10:47.744Z,100.00
2023-11-07T20:15:34.375Z,100.00
2023-11-07T20:18:04.983Z,100.00
2023-11-07T20:20:36.619Z,100.00
2023-11-07T20:23:10.022Z,100.00
2023-11-07T20:25:41.022Z,100.00
2023-11-07T20:28:11.152Z,100.00
2023-11-07T20:30:41.981Z,100.00
2023-11-07T20:33:14.257Z,100.00
2023-11-07T20:35:44.665Z,100.00
2023-11-07T20:38:14.723Z,100.00
2023-11-07T20:40:44.795Z,100.00
2023-11-07T20:43:14.936Z,100.00
2023-11-07T20:45:46.867Z,100.00
2023-11-07T20:48:16.604Z,100.00
2023-11-07T20:50:44.837Z,100.00
2023-11-07T20:53:13.538Z,100.00
2023-11-07T20:55:41.758Z,100.00
2023-11-07T20:58:10.203Z,100.00
2023-11-07T21:00:38.601Z,100.00
2023-11-07T21:03:07.145Z,100.00
2023-11-07T21:05:35.417Z,100.00
2023-11-07T21:08:04.311Z,100.00
2023-11-07T21:10:32.849Z,100.00
2023-11-07T21:13:00.694Z,100.00
2023-11-07T21:15:29.216Z,100.00
2023-11-07T21:17:57.564Z,100.00
2023-11-07T21:20:27.185Z,100.00
2023-11-07T21:22:54.421Z,100.00
2023-11-07T21:25:22.921Z,100.00
2023-11-07T21:27:51.243Z,100.00
2023-11-07T21:30:19.720Z,100.00
2023-11-07T21:32:48.240Z,100.00
2023-11-07T21:35:19.621Z,100.00
2023-11-07T21:37:51.168Z,100.00
2023-11-07T21:40:21.996Z,100.00
2023-11-07T21:42:52.794Z,100.00
2023-11-07T21:45:22.882Z,100.00
2023-11-07T21:47:52.981Z,100.00
2023-11-07T21:50:23.123Z,100.00
2023-11-07T21:52:53.510Z,100.00
2023-11-07T21:55:23.552Z,100.00
2023-11-07T21:57:53.774Z,100.00
2023-11-07T22:00:24.078Z,100.00
2023-11-07T22:02:54.119Z,100.00
2023-11-07T22:05:24.161Z,100.00
2023-11-07T22:07:54.263Z,100.00
2023-11-07T22:10:24.290Z,100.00
2023-11-07T22:12:54.337Z,100.00
2023-11-07T22:15:24.331Z,100.00
2023-11-07T22:17:54.393Z,100.00
2023-11-07T22:20:26.261Z,100.00
2023-11-07T22:22:56.297Z,100.00
2023-11-07T22:25:26.357Z,100.00
2023-11-07T22:27:56.942Z,100.00
2023-11-07T22:30:25.267Z,100.00
2023-11-07T22:32:53.232Z,100.00
2023-11-07T22:35:22.499Z,100.00
2023-11-07T22:37:50.211Z,100.00
2023-11-07T22:40:19.248Z,100.00
2023-11-07T22:42:46.876Z,100.00
2023-11-07T22:45:17.309Z,100.00
2023-11-07T22:47:46.860Z,100.00
2023-11-07T22:50:15.139Z,100.00
2023-11-07T22:52:43.550Z,100.00
2023-11-07T22:55:12.856Z,100.00
2023-11-07T22:57:40.437Z,100.00
2023-11-07T23:00:29.182Z,100.00
2023-11-07T23:02:59.896Z,100.00
2023-11-07T23:05:28.271Z,100.00
2023-11-07T23:07:56.404Z,100.00
2023-11-07T23:10:24.817Z,100.00
2023-11-07T23:12:53.316Z,100.00
2023-11-07T23:15:21.707Z,100.00
2023-11-07T23:17:50.153Z,100.00
2023-11-07T23:20:18.694Z,100.00
2023-11-07T23:22:46.892Z,100.00
2023-11-07T23:25:15.260Z,100.00
2023-11-07T23:27:43.825Z,100.00
2023-11-07T23:30:14.228Z,100.00
2023-11-07T23:32:43.740Z,100.00
2023-11-07T23:35:12.348Z,100.00
2023-11-07T23:37:40.441Z,100.00
2023-11-07T23:40:20.130Z,100.00
2023-11-07T23:42:50.459Z,100.00
2023-11-07T23:45:20.543Z,100.00
2023-11-07T23:47:50.766Z,100.00
2023-11-07T23:50:20.822Z,100.00
2023-11-07T23:52:51.361Z,100.00
2023-11-07T23:55:21.973Z,100.00
2023-11-07T23:57:52.925Z,100.00
